sensor_id;sensor_type;location;lat;lon;timestamp;P1;durP1;ratioP1;P2;durP2;ratioP2
75634;SDS011;64227;48.724;9.104;2022-10-16T00:01:09;1.23;;;0.95;;
75634;SDS011;64227;48.724;9.104;2022-10-16T00:03:36;1.08;;;0.88;;
75634;SDS011;64227;48.724;9.104;2022-10-16T00:06:02;1.50;;;0.90;;
75634;SDS011;64227;48.724;9.104;2022-10-16T00:08:28;2.45;;;1.00;;
75634;SDS011;64227;48.724;9.104;2022-10-16T00:10:58;1.10;;;0.80;;
75634;SDS011;64227;48.724;9.104;2022-10-16T00:13:33;2.90;;;0.70;;
75634;SDS011;64227;48.724;9.104;2022-10-16T00:16:00;3.15;;;0.85;;
75634;SDS011;64227;48.724;9.104;2022-10-16T00:18:26;4.00;;;1.17;;
75634;SDS011;64227;48.724;9.104;2022-10-16T00:20:52;1.52;;;1.08;;
75634;SDS011;64227;48.724;9.104;2022-10-16T00:23:18;2.10;;;1.10;;
75634;SDS011;64227;48.724;9.104;2022-10-16T00:25:43;1.27;;;0.90;;
75634;SDS011;64227;48.724;9.104;2022-10-16T00:28:08;3.72;;;1.30;;
75634;SDS011;64227;48.724;9.104;2022-10-16T00:30:37;1.10;;;0.90;;
75634;SDS011;64227;48.724;9.104;2022-10-16T00:33:03;2.35;;;1.05;;
75634;SDS011;64227;48.724;9.104;2022-10-16T00:35:28;2.45;;;1.10;;
75634;SDS011;64227;48.724;9.104;2022-10-16T00:37:54;3.10;;;1.13;;
75634;SDS011;64227;48.724;9.104;2022-10-16T00:40:19;3.45;;;1.20;;
75634;SDS011;64227;48.724;9.104;2022-10-16T00:42:44;2.63;;;1.33;;
75634;SDS011;64227;48.724;9.104;2022-10-16T00:45:10;1.13;;;0.90;;
75634;SDS011;64227;48.724;9.104;2022-10-16T00:47:54;0.88;;;0.80;;
75634;SDS011;64227;48.724;9.104;2022-10-16T00:50:28;2.10;;;1.90;;
75634;SDS011;64227;48.724;9.104;2022-10-16T00:52:55;1.45;;;1.25;;
75634;SDS011;64227;48.724;9.104;2022-10-16T00:55:21;1.80;;;0.80;;
75634;SDS011;64227;48.724;9.104;2022-10-16T00:57:48;2.03;;;1.10;;
75634;SDS011;64227;48.724;9.104;2022-10-16T01:00:15;1.98;;;0.98;;
75634;SDS011;64227;48.724;9.104;2022-10-16T01:02:43;3.92;;;1.38;;
75634;SDS011;64227;48.724;9.104;2022-10-16T01:05:08;1.80;;;1.30;;
75634;SDS011;64227;48.724;9.104;2022-10-16T01:10:26;2.28;;;1.10;;
75634;SDS011;64227;48.724;9.104;2022-10-16T01:13:21;2.33;;;0.90;;
75634;SDS011;64227;48.724;9.104;2022-10-16T01:15:59;0.85;;;0.80;;
75634;SDS011;64227;48.724;9.104;2022-10-16T01:21:04;2.10;;;0.75;;
75634;SDS011;64227;48.724;9.104;2022-10-16T01:23:36;1.10;;;0.75;;
75634;SDS011;64227;48.724;9.104;2022-10-16T01:28:47;1.92;;;1.02;;
75634;SDS011;64227;48.724;9.104;2022-10-16T01:31:18;4.10;;;0.90;;
75634;SDS011;64227;48.724;9.104;2022-10-16T01:33:51;1.10;;;1.02;;
75634;SDS011;64227;48.724;9.104;2022-10-16T01:36:45;4.00;;;1.05;;
75634;SDS011;64227;48.724;9.104;2022-10-16T01:39:13;1.38;;;0.80;;
75634;SDS011;64227;48.724;9.104;2022-10-16T01:41:43;0.80;;;0.70;;
75634;SDS011;64227;48.724;9.104;2022-10-16T01:44:13;5.68;;;1.02;;
75634;SDS011;64227;48.724;9.104;2022-10-16T01:46:43;1.27;;;0.95;;
75634;SDS011;64227;48.724;9.104;2022-10-16T01:49:11;2.00;;;0.77;;
75634;SDS011;64227;48.724;9.104;2022-10-16T01:51:37;1.02;;;0.85;;
75634;SDS011;64227;48.724;9.104;2022-10-16T01:54:02;5.03;;;0.90;;
75634;SDS011;64227;48.724;9.104;2022-10-16T01:56:30;1.75;;;1.00;;
75634;SDS011;64227;48.724;9.104;2022-10-16T01:58:57;1.60;;;0.55;;
75634;SDS011;64227;48.724;9.104;2022-10-16T02:01:24;0.85;;;0.80;;
75634;SDS011;64227;48.724;9.104;2022-10-16T02:03:52;2.75;;;0.80;;
75634;SDS011;64227;48.724;9.104;2022-10-16T02:06:19;1.20;;;0.90;;
75634;SDS011;64227;48.724;9.104;2022-10-16T02:08:44;1.77;;;1.10;;
75634;SDS011;64227;48.724;9.104;2022-10-16T02:11:10;1.50;;;0.82;;
75634;SDS011;64227;48.724;9.104;2022-10-16T02:13:37;0.80;;;0.77;;
75634;SDS011;64227;48.724;9.104;2022-10-16T02:16:06;1.48;;;0.80;;
75634;SDS011;64227;48.724;9.104;2022-10-16T02:18:31;1.20;;;0.85;;
75634;SDS011;64227;48.724;9.104;2022-10-16T02:24:04;0.60;;;0.60;;
75634;SDS011;64227;48.724;9.104;2022-10-16T02:26:40;1.20;;;1.10;;
75634;SDS011;64227;48.724;9.104;2022-10-16T02:29:10;3.13;;;1.27;;
75634;SDS011;64227;48.724;9.104;2022-10-16T02:31:38;1.55;;;0.90;;
75634;SDS011;64227;48.724;9.104;2022-10-16T02:34:06;1.83;;;1.00;;
75634;SDS011;64227;48.724;9.104;2022-10-16T02:36:32;1.52;;;0.70;;
75634;SDS011;64227;48.724;9.104;2022-10-16T02:38:58;8.45;;;1.23;;
75634;SDS011;64227;48.724;9.104;2022-10-16T02:41:26;3.55;;;1.00;;
75634;SDS011;64227;48.724;9.104;2022-10-16T02:43:52;3.33;;;0.82;;
75634;SDS011;64227;48.724;9.104;2022-10-16T02:46:17;1.10;;;0.90;;
75634;SDS011;64227;48.724;9.104;2022-10-16T02:48:43;7.53;;;1.10;;
75634;SDS011;64227;48.724;9.104;2022-10-16T02:51:08;1.27;;;0.80;;
75634;SDS011;64227;48.724;9.104;2022-10-16T02:53:33;2.77;;;0.90;;
75634;SDS011;64227;48.724;9.104;2022-10-16T02:55:58;3.17;;;0.82;;
75634;SDS011;64227;48.724;9.104;2022-10-16T02:58:24;2.10;;;0.90;;
75634;SDS011;64227;48.724;9.104;2022-10-16T03:00:49;0.77;;;0.70;;
75634;SDS011;64227;48.724;9.104;2022-10-16T03:03:14;0.60;;;0.60;;
75634;SDS011;64227;48.724;9.104;2022-10-16T03:05:40;0.90;;;0.70;;
75634;SDS011;64227;48.724;9.104;2022-10-16T03:08:05;1.02;;;0.60;;
75634;SDS011;64227;48.724;9.104;2022-10-16T03:10:30;0.80;;;0.57;;
75634;SDS011;64227;48.724;9.104;2022-10-16T03:12:56;0.70;;;0.70;;
75634;SDS011;64227;48.724;9.104;2022-10-16T03:15:21;0.82;;;0.70;;
75634;SDS011;64227;48.724;9.104;2022-10-16T03:17:46;1.02;;;0.77;;
75634;SDS011;64227;48.724;9.104;2022-10-16T03:20:12;7.65;;;1.15;;
75634;SDS011;64227;48.724;9.104;2022-10-16T03:22:37;2.00;;;0.93;;
75634;SDS011;64227;48.724;9.104;2022-10-16T03:25:02;2.47;;;1.10;;
75634;SDS011;64227;48.724;9.104;2022-10-16T03:27:28;6.25;;;0.85;;
75634;SDS011;64227;48.724;9.104;2022-10-16T03:29:53;2.55;;;1.00;;
75634;SDS011;64227;48.724;9.104;2022-10-16T03:32:19;1.13;;;0.68;;
75634;SDS011;64227;48.724;9.104;2022-10-16T03:34:45;2.83;;;0.70;;
75634;SDS011;64227;48.724;9.104;2022-10-16T03:37:10;2.15;;;0.70;;
75634;SDS011;64227;48.724;9.104;2022-10-16T03:39:36;1.23;;;0.60;;
75634;SDS011;64227;48.724;9.104;2022-10-16T03:42:01;1.00;;;0.75;;
75634;SDS011;64227;48.724;9.104;2022-10-16T03:44:26;3.85;;;0.85;;
75634;SDS011;64227;48.724;9.104;2022-10-16T03:46:51;1.10;;;0.70;;
75634;SDS011;64227;48.724;9.104;2022-10-16T03:49:17;1.52;;;0.80;;
75634;SDS011;64227;48.724;9.104;2022-10-16T03:51:42;2.05;;;0.90;;
75634;SDS011;64227;48.724;9.104;2022-10-16T03:54:07;3.53;;;0.95;;
75634;SDS011;64227;48.724;9.104;2022-10-16T03:56:33;0.98;;;0.88;;
75634;SDS011;64227;48.724;9.104;2022-10-16T03:58:59;1.05;;;0.80;;
75634;SDS011;64227;48.724;9.104;2022-10-16T04:01:24;1.85;;;0.98;;
75634;SDS011;64227;48.724;9.104;2022-10-16T04:03:49;2.28;;;0.90;;
75634;SDS011;64227;48.724;9.104;2022-10-16T04:06:15;2.95;;;1.00;;
75634;SDS011;64227;48.724;9.104;2022-10-16T04:08:42;1.65;;;1.15;;
75634;SDS011;64227;48.724;9.104;2022-10-16T04:11:07;2.40;;;0.90;;
75634;SDS011;64227;48.724;9.104;2022-10-16T04:13:33;4.25;;;0.90;;
75634;SDS011;64227;48.724;9.104;2022-10-16T04:15:58;2.05;;;1.10;;
75634;SDS011;64227;48.724;9.104;2022-10-16T04:18:23;0.88;;;0.82;;
75634;SDS011;64227;48.724;9.104;2022-10-16T04:20:52;1.80;;;0.82;;
75634;SDS011;64227;48.724;9.104;2022-10-16T04:23:17;4.63;;;0.90;;
75634;SDS011;64227;48.724;9.104;2022-10-16T04:25:42;3.10;;;0.80;;
75634;SDS011;64227;48.724;9.104;2022-10-16T04:28:07;0.77;;;0.73;;
75634;SDS011;64227;48.724;9.104;2022-10-16T04:30:33;2.58;;;0.90;;
75634;SDS011;64227;48.724;9.104;2022-10-16T04:32:58;2.00;;;0.98;;
75634;SDS011;64227;48.724;9.104;2022-10-16T04:35:24;1.38;;;0.80;;
75634;SDS011;64227;48.724;9.104;2022-10-16T04:37:49;1.27;;;0.88;;
75634;SDS011;64227;48.724;9.104;2022-10-16T04:40:15;1.02;;;0.85;;
75634;SDS011;64227;48.724;9.104;2022-10-16T04:42:40;2.50;;;0.70;;
75634;SDS011;64227;48.724;9.104;2022-10-16T04:45:06;0.70;;;0.70;;
75634;SDS011;64227;48.724;9.104;2022-10-16T04:47:33;1.15;;;0.98;;
75634;SDS011;64227;48.724;9.104;2022-10-16T04:49:58;2.92;;;0.88;;
75634;SDS011;64227;48.724;9.104;2022-10-16T04:52:27;2.50;;;0.90;;
75634;SDS011;64227;48.724;9.104;2022-10-16T04:54:52;0.90;;;0.70;;
75634;SDS011;64227;48.724;9.104;2022-10-16T04:57:18;0.70;;;0.70;;
75634;SDS011;64227;48.724;9.104;2022-10-16T04:59:44;2.65;;;0.95;;
75634;SDS011;64227;48.724;9.104;2022-10-16T05:02:09;1.30;;;0.88;;
75634;SDS011;64227;48.724;9.104;2022-10-16T05:04:34;1.10;;;0.88;;
75634;SDS011;64227;48.724;9.104;2022-10-16T05:07:00;1.38;;;0.95;;
75634;SDS011;64227;48.724;9.104;2022-10-16T05:09:25;0.93;;;0.73;;
75634;SDS011;64227;48.724;9.104;2022-10-16T05:11:50;4.20;;;0.88;;
75634;SDS011;64227;48.724;9.104;2022-10-16T05:14:16;2.97;;;0.82;;
75634;SDS011;64227;48.724;9.104;2022-10-16T05:16:41;1.27;;;0.80;;
75634;SDS011;64227;48.724;9.104;2022-10-16T05:19:06;1.13;;;0.65;;
75634;SDS011;64227;48.724;9.104;2022-10-16T05:21:32;0.85;;;0.85;;
75634;SDS011;64227;48.724;9.104;2022-10-16T05:23:57;1.23;;;0.80;;
75634;SDS011;64227;48.724;9.104;2022-10-16T05:26:22;1.48;;;0.80;;
75634;SDS011;64227;48.724;9.104;2022-10-16T05:28:48;3.05;;;0.75;;
75634;SDS011;64227;48.724;9.104;2022-10-16T05:31:14;3.20;;;1.08;;
75634;SDS011;64227;48.724;9.104;2022-10-16T05:33:39;0.80;;;0.80;;
75634;SDS011;64227;48.724;9.104;2022-10-16T05:36:05;0.95;;;0.80;;
75634;SDS011;64227;48.724;9.104;2022-10-16T05:38:32;3.10;;;0.75;;
75634;SDS011;64227;48.724;9.104;2022-10-16T05:40:58;1.85;;;1.05;;
75634;SDS011;64227;48.724;9.104;2022-10-16T05:43:23;1.38;;;1.05;;
75634;SDS011;64227;48.724;9.104;2022-10-16T05:46:02;1.48;;;1.00;;
75634;SDS011;64227;48.724;9.104;2022-10-16T05:48:29;2.70;;;1.00;;
75634;SDS011;64227;48.724;9.104;2022-10-16T05:50:56;2.35;;;1.20;;
75634;SDS011;64227;48.724;9.104;2022-10-16T05:53:22;4.22;;;0.95;;
75634;SDS011;64227;48.724;9.104;2022-10-16T05:55:54;2.22;;;0.90;;
75634;SDS011;64227;48.724;9.104;2022-10-16T05:58:20;2.55;;;1.10;;
75634;SDS011;64227;48.724;9.104;2022-10-16T06:00:52;2.40;;;1.05;;
75634;SDS011;64227;48.724;9.104;2022-10-16T06:03:18;1.35;;;0.55;;
75634;SDS011;64227;48.724;9.104;2022-10-16T06:05:44;0.93;;;0.90;;
75634;SDS011;64227;48.724;9.104;2022-10-16T06:08:09;1.35;;;1.00;;
75634;SDS011;64227;48.724;9.104;2022-10-16T06:10:34;0.88;;;0.70;;
75634;SDS011;64227;48.724;9.104;2022-10-16T06:13:00;0.88;;;0.85;;
75634;SDS011;64227;48.724;9.104;2022-10-16T06:15:25;2.70;;;0.90;;
75634;SDS011;64227;48.724;9.104;2022-10-16T06:17:50;1.60;;;0.80;;
75634;SDS011;64227;48.724;9.104;2022-10-16T06:20:16;0.87;;;0.60;;
75634;SDS011;64227;48.724;9.104;2022-10-16T06:22:41;2.65;;;0.93;;
75634;SDS011;64227;48.724;9.104;2022-10-16T06:25:06;1.30;;;0.80;;
75634;SDS011;64227;48.724;9.104;2022-10-16T06:27:32;0.95;;;0.88;;
75634;SDS011;64227;48.724;9.104;2022-10-16T06:29:57;1.05;;;0.73;;
75634;SDS011;64227;48.724;9.104;2022-10-16T06:32:22;1.17;;;0.70;;
75634;SDS011;64227;48.724;9.104;2022-10-16T06:34:48;1.27;;;1.10;;
75634;SDS011;64227;48.724;9.104;2022-10-16T06:37:13;1.02;;;0.85;;
75634;SDS011;64227;48.724;9.104;2022-10-16T06:39:38;2.40;;;1.13;;
75634;SDS011;64227;48.724;9.104;2022-10-16T06:42:04;4.32;;;0.90;;
75634;SDS011;64227;48.724;9.104;2022-10-16T06:44:29;1.13;;;0.80;;
75634;SDS011;64227;48.724;9.104;2022-10-16T06:46:54;1.23;;;0.95;;
75634;SDS011;64227;48.724;9.104;2022-10-16T06:49:19;1.05;;;0.75;;
75634;SDS011;64227;48.724;9.104;2022-10-16T06:51:47;0.73;;;0.70;;
75634;SDS011;64227;48.724;9.104;2022-10-16T06:54:14;2.08;;;1.08;;
75634;SDS011;64227;48.724;9.104;2022-10-16T06:56:40;4.30;;;1.00;;
75634;SDS011;64227;48.724;9.104;2022-10-16T06:59:05;1.80;;;0.80;;
75634;SDS011;64227;48.724;9.104;2022-10-16T07:01:31;3.42;;;0.90;;
75634;SDS011;64227;48.724;9.104;2022-10-16T07:03:57;1.05;;;0.80;;
75634;SDS011;64227;48.724;9.104;2022-10-16T07:06:23;1.77;;;0.88;;
75634;SDS011;64227;48.724;9.104;2022-10-16T07:08:50;1.23;;;0.70;;
75634;SDS011;64227;48.724;9.104;2022-10-16T07:11:17;2.92;;;0.82;;
75634;SDS011;64227;48.724;9.104;2022-10-16T07:13:46;1.10;;;0.90;;
75634;SDS011;64227;48.724;9.104;2022-10-16T07:18:39;1.20;;;0.85;;
75634;SDS011;64227;48.724;9.104;2022-10-16T07:21:09;0.73;;;0.70;;
75634;SDS011;64227;48.724;9.104;2022-10-16T07:23:36;1.75;;;0.50;;
75634;SDS011;64227;48.724;9.104;2022-10-16T07:26:02;2.03;;;0.80;;
75634;SDS011;64227;48.724;9.104;2022-10-16T07:28:28;1.52;;;0.82;;
75634;SDS011;64227;48.724;9.104;2022-10-16T07:30:53;0.80;;;0.80;;
75634;SDS011;64227;48.724;9.104;2022-10-16T07:33:19;1.17;;;0.80;;
75634;SDS011;64227;48.724;9.104;2022-10-16T07:35:48;2.15;;;1.40;;
75634;SDS011;64227;48.724;9.104;2022-10-16T07:38:17;1.58;;;0.70;;
75634;SDS011;64227;48.724;9.104;2022-10-16T07:40:43;1.85;;;0.70;;
75634;SDS011;64227;48.724;9.104;2022-10-16T07:43:08;0.65;;;0.65;;
75634;SDS011;64227;48.724;9.104;2022-10-16T07:45:34;1.88;;;0.80;;
75634;SDS011;64227;48.724;9.104;2022-10-16T07:47:59;4.30;;;1.23;;
75634;SDS011;64227;48.724;9.104;2022-10-16T07:50:24;0.77;;;0.70;;
75634;SDS011;64227;48.724;9.104;2022-10-16T07:52:50;3.40;;;0.80;;
75634;SDS011;64227;48.724;9.104;2022-10-16T07:55:15;2.28;;;0.88;;
75634;SDS011;64227;48.724;9.104;2022-10-16T07:57:40;1.17;;;0.70;;
75634;SDS011;64227;48.724;9.104;2022-10-16T08:00:06;1.77;;;0.80;;
75634;SDS011;64227;48.724;9.104;2022-10-16T08:02:32;1.88;;;1.35;;
75634;SDS011;64227;48.724;9.104;2022-10-16T08:04:57;2.75;;;0.95;;
75634;SDS011;64227;48.724;9.104;2022-10-16T08:07:22;1.08;;;0.85;;
75634;SDS011;64227;48.724;9.104;2022-10-16T08:09:51;2.80;;;1.25;;
75634;SDS011;64227;48.724;9.104;2022-10-16T08:12:17;1.67;;;1.10;;
75634;SDS011;64227;48.724;9.104;2022-10-16T08:14:42;1.15;;;0.80;;
75634;SDS011;64227;48.724;9.104;2022-10-16T08:17:08;3.20;;;0.93;;
75634;SDS011;64227;48.724;9.104;2022-10-16T08:19:33;2.28;;;0.80;;
75634;SDS011;64227;48.724;9.104;2022-10-16T08:21:59;1.48;;;0.82;;
75634;SDS011;64227;48.724;9.104;2022-10-16T08:24:25;1.83;;;0.80;;
75634;SDS011;64227;48.724;9.104;2022-10-16T08:26:52;1.25;;;0.82;;
75634;SDS011;64227;48.724;9.104;2022-10-16T08:29:18;1.58;;;1.00;;
75634;SDS011;64227;48.724;9.104;2022-10-16T08:31:43;1.00;;;0.80;;
75634;SDS011;64227;48.724;9.104;2022-10-16T08:34:09;1.15;;;0.70;;
75634;SDS011;64227;48.724;9.104;2022-10-16T08:36:34;1.42;;;0.85;;
75634;SDS011;64227;48.724;9.104;2022-10-16T08:38:59;1.95;;;0.88;;
75634;SDS011;64227;48.724;9.104;2022-10-16T08:50:08;0.75;;;0.70;;
75634;SDS011;64227;48.724;9.104;2022-10-16T08:52:35;0.50;;;0.50;;
75634;SDS011;64227;48.724;9.104;2022-10-16T08:55:04;0.80;;;0.80;;
75634;SDS011;64227;48.724;9.104;2022-10-16T08:57:30;1.23;;;0.80;;
75634;SDS011;64227;48.724;9.104;2022-10-16T08:59:58;2.13;;;0.90;;
75634;SDS011;64227;48.724;9.104;2022-10-16T09:02:32;5.40;;;0.80;;
75634;SDS011;64227;48.724;9.104;2022-10-16T09:13:40;1.00;;;0.85;;
75634;SDS011;64227;48.724;9.104;2022-10-16T09:16:24;1.60;;;0.60;;
75634;SDS011;64227;48.724;9.104;2022-10-16T09:19:15;2.85;;;0.77;;
75634;SDS011;64227;48.724;9.104;2022-10-16T09:21:59;1.55;;;0.80;;
75634;SDS011;64227;48.724;9.104;2022-10-16T09:24:26;1.58;;;0.60;;
75634;SDS011;64227;48.724;9.104;2022-10-16T09:26:51;0.60;;;0.60;;
75634;SDS011;64227;48.724;9.104;2022-10-16T09:29:18;4.22;;;0.90;;
75634;SDS011;64227;48.724;9.104;2022-10-16T09:31:45;1.55;;;0.88;;
75634;SDS011;64227;48.724;9.104;2022-10-16T09:34:35;2.63;;;0.85;;
75634;SDS011;64227;48.724;9.104;2022-10-16T09:37:08;2.50;;;0.60;;
75634;SDS011;64227;48.724;9.104;2022-10-16T09:42:34;1.52;;;0.73;;
75634;SDS011;64227;48.724;9.104;2022-10-16T09:45:00;2.08;;;0.80;;
75634;SDS011;64227;48.724;9.104;2022-10-16T09:47:26;0.70;;;0.70;;
75634;SDS011;64227;48.724;9.104;2022-10-16T09:52:19;1.67;;;1.30;;
75634;SDS011;64227;48.724;9.104;2022-10-16T09:57:23;1.58;;;0.77;;
75634;SDS011;64227;48.724;9.104;2022-10-16T09:59:52;1.58;;;0.70;;
75634;SDS011;64227;48.724;9.104;2022-10-16T10:02:20;1.58;;;0.77;;
75634;SDS011;64227;48.724;9.104;2022-10-16T10:04:53;1.65;;;0.90;;
75634;SDS011;64227;48.724;9.104;2022-10-16T10:07:26;3.45;;;1.05;;
75634;SDS011;64227;48.724;9.104;2022-10-16T10:09:53;4.10;;;1.45;;
75634;SDS011;64227;48.724;9.104;2022-10-16T10:12:24;0.70;;;0.63;;
75634;SDS011;64227;48.724;9.104;2022-10-16T10:14:51;2.75;;;0.80;;
75634;SDS011;64227;48.724;9.104;2022-10-16T10:19:54;1.05;;;0.65;;
75634;SDS011;64227;48.724;9.104;2022-10-16T10:46:28;2.33;;;1.55;;
75634;SDS011;64227;48.724;9.104;2022-10-16T10:54:06;2.15;;;0.77;;
75634;SDS011;64227;48.724;9.104;2022-10-16T10:56:43;0.80;;;0.80;;
75634;SDS011;64227;48.724;9.104;2022-10-16T11:06:55;0.93;;;0.60;;
75634;SDS011;64227;48.724;9.104;2022-10-16T11:09:42;1.80;;;0.85;;
75634;SDS011;64227;48.724;9.104;2022-10-16T11:12:13;4.30;;;0.80;;
75634;SDS011;64227;48.724;9.104;2022-10-16T11:17:34;3.17;;;0.73;;
75634;SDS011;64227;48.724;9.104;2022-10-16T11:20:14;0.73;;;0.73;;
75634;SDS011;64227;48.724;9.104;2022-10-16T11:25:30;1.50;;;0.82;;
75634;SDS011;64227;48.724;9.104;2022-10-16T11:28:18;2.03;;;0.85;;
75634;SDS011;64227;48.724;9.104;2022-10-16T11:30:53;1.50;;;0.90;;
75634;SDS011;64227;48.724;9.104;2022-10-16T11:46:42;1.00;;;0.60;;
75634;SDS011;64227;48.724;9.104;2022-10-16T11:49:14;2.65;;;0.70;;
75634;SDS011;64227;48.724;9.104;2022-10-16T11:51:44;1.42;;;0.70;;
75634;SDS011;64227;48.724;9.104;2022-10-16T11:57:33;1.27;;;0.60;;
75634;SDS011;64227;48.724;9.104;2022-10-16T12:00:10;0.70;;;0.60;;
75634;SDS011;64227;48.724;9.104;2022-10-16T12:05:54;1.45;;;0.85;;
75634;SDS011;64227;48.724;9.104;2022-10-16T12:08:33;2.00;;;0.68;;
75634;SDS011;64227;48.724;9.104;2022-10-16T12:11:06;1.02;;;0.82;;
75634;SDS011;64227;48.724;9.104;2022-10-16T12:14:03;2.22;;;0.80;;
75634;SDS011;64227;48.724;9.104;2022-10-16T12:16:52;1.13;;;1.00;;
75634;SDS011;64227;48.724;9.104;2022-10-16T12:19:18;2.17;;;1.27;;
75634;SDS011;64227;48.724;9.104;2022-10-16T12:21:44;2.30;;;1.00;;
75634;SDS011;64227;48.724;9.104;2022-10-16T12:27:02;2.67;;;0.80;;
75634;SDS011;64227;48.724;9.104;2022-10-16T12:29:33;1.23;;;0.70;;
75634;SDS011;64227;48.724;9.104;2022-10-16T12:31:59;3.40;;;1.00;;
75634;SDS011;64227;48.724;9.104;2022-10-16T12:39:39;1.10;;;0.80;;
75634;SDS011;64227;48.724;9.104;2022-10-16T12:42:31;6.25;;;1.27;;
75634;SDS011;64227;48.724;9.104;2022-10-16T12:44:58;1.52;;;0.90;;
75634;SDS011;64227;48.724;9.104;2022-10-16T12:49:56;2.75;;;0.95;;
75634;SDS011;64227;48.724;9.104;2022-10-16T12:52:26;2.42;;;0.80;;
75634;SDS011;64227;48.724;9.104;2022-10-16T12:54:58;0.88;;;0.73;;
75634;SDS011;64227;48.724;9.104;2022-10-16T13:00:24;1.15;;;0.88;;
75634;SDS011;64227;48.724;9.104;2022-10-16T13:03:04;0.80;;;0.80;;
75634;SDS011;64227;48.724;9.104;2022-10-16T13:11:29;2.28;;;0.90;;
75634;SDS011;64227;48.724;9.104;2022-10-16T13:28:08;1.13;;;1.02;;
75634;SDS011;64227;48.724;9.104;2022-10-16T13:30:41;1.42;;;1.33;;
75634;SDS011;64227;48.724;9.104;2022-10-16T13:33:15;2.38;;;1.20;;
75634;SDS011;64227;48.724;9.104;2022-10-16T13:35:49;0.88;;;0.88;;
75634;SDS011;64227;48.724;9.104;2022-10-16T13:40:49;1.90;;;1.10;;
75634;SDS011;64227;48.724;9.104;2022-10-16T13:43:20;1.08;;;0.85;;
75634;SDS011;64227;48.724;9.104;2022-10-16T13:45:52;1.50;;;0.82;;
75634;SDS011;64227;48.724;9.104;2022-10-16T13:48:19;2.65;;;1.05;;
75634;SDS011;64227;48.724;9.104;2022-10-16T13:50:44;0.98;;;0.88;;
75634;SDS011;64227;48.724;9.104;2022-10-16T13:53:13;1.03;;;1.03;;
75634;SDS011;64227;48.724;9.104;2022-10-16T13:55:39;1.00;;;0.93;;
75634;SDS011;64227;48.724;9.104;2022-10-16T13:58:05;3.05;;;1.00;;
75634;SDS011;64227;48.724;9.104;2022-10-16T14:03:01;1.00;;;0.90;;
75634;SDS011;64227;48.724;9.104;2022-10-16T14:05:32;1.10;;;1.00;;
75634;SDS011;64227;48.724;9.104;2022-10-16T14:07:58;1.85;;;1.13;;
75634;SDS011;64227;48.724;9.104;2022-10-16T14:10:30;1.45;;;1.10;;
75634;SDS011;64227;48.724;9.104;2022-10-16T14:13:03;5.13;;;1.55;;
75634;SDS011;64227;48.724;9.104;2022-10-16T14:15:30;2.50;;;1.02;;
75634;SDS011;64227;48.724;9.104;2022-10-16T14:17:57;2.25;;;0.93;;
75634;SDS011;64227;48.724;9.104;2022-10-16T14:20:24;3.15;;;1.20;;
75634;SDS011;64227;48.724;9.104;2022-10-16T14:25:47;2.45;;;1.10;;
75634;SDS011;64227;48.724;9.104;2022-10-16T14:30:48;3.10;;;1.17;;
75634;SDS011;64227;48.724;9.104;2022-10-16T14:33:22;1.73;;;0.90;;
75634;SDS011;64227;48.724;9.104;2022-10-16T14:36:05;2.35;;;1.30;;
75634;SDS011;64227;48.724;9.104;2022-10-16T14:38:34;3.58;;;1.02;;
75634;SDS011;64227;48.724;9.104;2022-10-16T14:40:59;1.30;;;1.20;;
75634;SDS011;64227;48.724;9.104;2022-10-16T14:43:32;1.77;;;1.10;;
75634;SDS011;64227;48.724;9.104;2022-10-16T14:48:44;3.05;;;1.10;;
75634;SDS011;64227;48.724;9.104;2022-10-16T14:51:18;1.13;;;1.02;;
75634;SDS011;64227;48.724;9.104;2022-10-16T14:53:44;1.02;;;1.00;;
75634;SDS011;64227;48.724;9.104;2022-10-16T14:56:17;4.20;;;1.30;;
75634;SDS011;64227;48.724;9.104;2022-10-16T14:58:47;3.25;;;1.20;;
75634;SDS011;64227;48.724;9.104;2022-10-16T15:01:13;4.18;;;1.23;;
75634;SDS011;64227;48.724;9.104;2022-10-16T15:03:38;1.25;;;1.10;;
75634;SDS011;64227;48.724;9.104;2022-10-16T15:06:07;4.90;;;1.30;;
75634;SDS011;64227;48.724;9.104;2022-10-16T15:08:35;1.77;;;1.25;;
75634;SDS011;64227;48.724;9.104;2022-10-16T15:11:01;3.75;;;1.40;;
75634;SDS011;64227;48.724;9.104;2022-10-16T15:13:26;1.02;;;0.95;;
75634;SDS011;64227;48.724;9.104;2022-10-16T15:15:51;4.00;;;1.77;;
75634;SDS011;64227;48.724;9.104;2022-10-16T15:18:17;2.50;;;1.17;;
75634;SDS011;64227;48.724;9.104;2022-10-16T15:20:47;1.63;;;1.23;;
75634;SDS011;64227;48.724;9.104;2022-10-16T15:23:18;1.80;;;1.00;;
75634;SDS011;64227;48.724;9.104;2022-10-16T15:25:46;2.00;;;1.10;;
75634;SDS011;64227;48.724;9.104;2022-10-16T15:28:20;2.53;;;1.27;;
75634;SDS011;64227;48.724;9.104;2022-10-16T15:30:46;2.05;;;1.05;;
75634;SDS011;64227;48.724;9.104;2022-10-16T15:33:19;2.92;;;1.38;;
75634;SDS011;64227;48.724;9.104;2022-10-16T15:35:46;3.00;;;1.20;;
75634;SDS011;64227;48.724;9.104;2022-10-16T15:38:13;5.47;;;4.10;;
75634;SDS011;64227;48.724;9.104;2022-10-16T15:40:39;2.95;;;1.70;;
75634;SDS011;64227;48.724;9.104;2022-10-16T15:43:04;2.65;;;1.33;;
75634;SDS011;64227;48.724;9.104;2022-10-16T15:45:30;3.58;;;1.20;;
75634;SDS011;64227;48.724;9.104;2022-10-16T15:47:56;2.92;;;1.40;;
75634;SDS011;64227;48.724;9.104;2022-10-16T15:50:21;2.28;;;1.25;;
75634;SDS011;64227;48.724;9.104;2022-10-16T15:52:47;2.45;;;1.50;;
75634;SDS011;64227;48.724;9.104;2022-10-16T15:55:13;3.65;;;1.40;;
75634;SDS011;64227;48.724;9.104;2022-10-16T15:57:39;1.30;;;1.20;;
75634;SDS011;64227;48.724;9.104;2022-10-16T16:00:08;3.90;;;1.27;;
75634;SDS011;64227;48.724;9.104;2022-10-16T16:02:36;4.63;;;1.08;;
75634;SDS011;64227;48.724;9.104;2022-10-16T16:05:01;2.10;;;1.25;;
75634;SDS011;64227;48.724;9.104;2022-10-16T16:07:26;1.73;;;1.38;;
75634;SDS011;64227;48.724;9.104;2022-10-16T16:09:54;5.35;;;1.40;;
75634;SDS011;64227;48.724;9.104;2022-10-16T16:12:20;6.05;;;1.60;;
75634;SDS011;64227;48.724;9.104;2022-10-16T16:14:45;3.22;;;1.55;;
75634;SDS011;64227;48.724;9.104;2022-10-16T16:17:13;2.17;;;1.70;;
75634;SDS011;64227;48.724;9.104;2022-10-16T16:19:38;2.58;;;1.27;;
75634;SDS011;64227;48.724;9.104;2022-10-16T16:22:04;2.63;;;1.75;;
75634;SDS011;64227;48.724;9.104;2022-10-16T16:24:29;2.22;;;1.63;;
75634;SDS011;64227;48.724;9.104;2022-10-16T16:26:54;3.92;;;1.67;;
75634;SDS011;64227;48.724;9.104;2022-10-16T16:29:20;3.88;;;2.00;;
75634;SDS011;64227;48.724;9.104;2022-10-16T16:31:45;4.15;;;2.65;;
75634;SDS011;64227;48.724;9.104;2022-10-16T16:34:12;8.23;;;4.55;;
75634;SDS011;64227;48.724;9.104;2022-10-16T16:36:37;7.32;;;3.97;;
75634;SDS011;64227;48.724;9.104;2022-10-16T16:39:04;7.05;;;4.28;;
75634;SDS011;64227;48.724;9.104;2022-10-16T16:41:31;8.38;;;4.03;;
75634;SDS011;64227;48.724;9.104;2022-10-16T16:44:02;7.47;;;4.10;;
75634;SDS011;64227;48.724;9.104;2022-10-16T16:46:32;7.82;;;3.50;;
75634;SDS011;64227;48.724;9.104;2022-10-16T16:48:59;8.38;;;2.70;;
75634;SDS011;64227;48.724;9.104;2022-10-16T16:51:24;7.10;;;2.60;;
75634;SDS011;64227;48.724;9.104;2022-10-16T16:53:50;7.10;;;2.40;;
75634;SDS011;64227;48.724;9.104;2022-10-16T16:56:17;5.25;;;2.17;;
75634;SDS011;64227;48.724;9.104;2022-10-16T16:58:46;3.33;;;2.33;;
75634;SDS011;64227;48.724;9.104;2022-10-16T17:01:12;4.00;;;2.72;;
75634;SDS011;64227;48.724;9.104;2022-10-16T17:03:40;7.03;;;2.85;;
75634;SDS011;64227;48.724;9.104;2022-10-16T17:06:08;6.75;;;3.60;;
75634;SDS011;64227;48.724;9.104;2022-10-16T17:08:34;5.68;;;4.10;;
75634;SDS011;64227;48.724;9.104;2022-10-16T17:11:00;4.82;;;3.55;;
75634;SDS011;64227;48.724;9.104;2022-10-16T17:13:26;6.68;;;3.38;;
75634;SDS011;64227;48.724;9.104;2022-10-16T17:15:53;7.47;;;3.08;;
75634;SDS011;64227;48.724;9.104;2022-10-16T17:18:19;5.45;;;3.60;;
75634;SDS011;64227;48.724;9.104;2022-10-16T17:20:45;6.18;;;3.33;;
75634;SDS011;64227;48.724;9.104;2022-10-16T17:23:12;4.65;;;3.42;;